sensor_id;sensor_type;location;lat;lon;timestamp;P1;durP1;ratioP1;P2;durP2;ratioP2
16669;SDS011;8448;52.034;5.158;2022-09-01T00:01:37;2.47;;;1.45;;
16669;SDS011;8448;52.034;5.158;2022-09-01T00:04:07;2.63;;;1.65;;
16669;SDS011;8448;52.034;5.158;2022-09-01T00:06:36;1.90;;;1.70;;
16669;SDS011;8448;52.034;5.158;2022-09-01T00:09:05;3.42;;;1.60;;
16669;SDS011;8448;52.034;5.158;2022-09-01T00:11:34;2.67;;;1.30;;
16669;SDS011;8448;52.034;5.158;2022-09-01T00:14:02;3.05;;;1.60;;
16669;SDS011;8448;52.034;5.158;2022-09-01T00:16:32;2.85;;;1.52;;
16669;SDS011;8448;52.034;5.158;2022-09-01T00:19:00;3.95;;;1.52;;
16669;SDS011;8448;52.034;5.158;2022-09-01T00:21:29;2.50;;;1.52;;
16669;SDS011;8448;52.034;5.158;2022-09-01T00:23:58;3.78;;;1.50;;
16669;SDS011;8448;52.034;5.158;2022-09-01T00:26:26;2.30;;;1.45;;
16669;SDS011;8448;52.034;5.158;2022-09-01T00:28:53;2.67;;;1.65;;
16669;SDS011;8448;52.034;5.158;2022-09-01T00:31:21;1.92;;;1.50;;
16669;SDS011;8448;52.034;5.158;2022-09-01T00:33:50;3.22;;;1.60;;
16669;SDS011;8448;52.034;5.158;2022-09-01T00:36:18;2.75;;;1.80;;
16669;SDS011;8448;52.034;5.158;2022-09-01T00:38:46;3.63;;;1.60;;
16669;SDS011;8448;52.034;5.158;2022-09-01T00:41:15;1.92;;;1.70;;
16669;SDS011;8448;52.034;5.158;2022-09-01T00:43:44;3.28;;;2.00;;
16669;SDS011;8448;52.034;5.158;2022-09-01T00:46:13;3.80;;;1.90;;
16669;SDS011;8448;52.034;5.158;2022-09-01T00:48:42;3.25;;;1.90;;
16669;SDS011;8448;52.034;5.158;2022-09-01T00:51:11;2.20;;;1.80;;
16669;SDS011;8448;52.034;5.158;2022-09-01T00:53:39;4.05;;;1.80;;
16669;SDS011;8448;52.034;5.158;2022-09-01T00:56:08;3.20;;;1.88;;
16669;SDS011;8448;52.034;5.158;2022-09-01T00:58:35;2.78;;;1.73;;
16669;SDS011;8448;52.034;5.158;2022-09-01T01:01:04;4.72;;;2.15;;
16669;SDS011;8448;52.034;5.158;2022-09-01T01:03:32;2.13;;;1.85;;
16669;SDS011;8448;52.034;5.158;2022-09-01T01:06:00;4.15;;;1.98;;
16669;SDS011;8448;52.034;5.158;2022-09-01T01:08:36;3.28;;;1.90;;
16669;SDS011;8448;52.034;5.158;2022-09-01T01:11:06;5.32;;;2.30;;
16669;SDS011;8448;52.034;5.158;2022-09-01T01:13:45;5.38;;;2.20;;
16669;SDS011;8448;52.034;5.158;2022-09-01T01:16:15;8.82;;;2.47;;
16669;SDS011;8448;52.034;5.158;2022-09-01T01:18:44;6.57;;;2.30;;
16669;SDS011;8448;52.034;5.158;2022-09-01T01:21:16;3.92;;;2.28;;
16669;SDS011;8448;52.034;5.158;2022-09-01T01:24:04;4.97;;;2.40;;
16669;SDS011;8448;52.034;5.158;2022-09-01T01:26:39;4.78;;;2.60;;
16669;SDS011;8448;52.034;5.158;2022-09-01T01:29:07;4.03;;;2.58;;
16669;SDS011;8448;52.034;5.158;2022-09-01T01:31:36;3.17;;;2.45;;
16669;SDS011;8448;52.034;5.158;2022-09-01T01:34:03;4.47;;;2.80;;
16669;SDS011;8448;52.034;5.158;2022-09-01T01:36:32;4.45;;;2.67;;
16669;SDS011;8448;52.034;5.158;2022-09-01T01:39:05;6.72;;;2.60;;
16669;SDS011;8448;52.034;5.158;2022-09-01T01:41:34;4.90;;;2.45;;
16669;SDS011;8448;52.034;5.158;2022-09-01T01:44:08;3.30;;;2.13;;
16669;SDS011;8448;52.034;5.158;2022-09-01T01:46:39;4.03;;;2.40;;
16669;SDS011;8448;52.034;5.158;2022-09-01T01:49:08;5.95;;;2.65;;
16669;SDS011;8448;52.034;5.158;2022-09-01T01:51:38;4.65;;;2.53;;
16669;SDS011;8448;52.034;5.158;2022-09-01T01:54:06;3.75;;;2.35;;
16669;SDS011;8448;52.034;5.158;2022-09-01T01:56:34;3.28;;;2.30;;
16669;SDS011;8448;52.034;5.158;2022-09-01T01:59:06;4.60;;;2.40;;
16669;SDS011;8448;52.034;5.158;2022-09-01T02:01:40;3.13;;;2.10;;
16669;SDS011;8448;52.034;5.158;2022-09-01T02:04:08;5.38;;;2.15;;
16669;SDS011;8448;52.034;5.158;2022-09-01T02:06:40;2.70;;;2.15;;
16669;SDS011;8448;52.034;5.158;2022-09-01T02:09:10;2.95;;;2.20;;
16669;SDS011;8448;52.034;5.158;2022-09-01T02:11:38;3.08;;;1.85;;
16669;SDS011;8448;52.034;5.158;2022-09-01T02:14:07;3.80;;;2.40;;
16669;SDS011;8448;52.034;5.158;2022-09-01T02:16:37;2.45;;;2.20;;
16669;SDS011;8448;52.034;5.158;2022-09-01T02:19:05;3.10;;;2.33;;
16669;SDS011;8448;52.034;5.158;2022-09-01T02:21:36;2.75;;;1.90;;
16669;SDS011;8448;52.034;5.158;2022-09-01T02:24:09;3.72;;;2.10;;
16669;SDS011;8448;52.034;5.158;2022-09-01T02:26:37;3.78;;;2.03;;
16669;SDS011;8448;52.034;5.158;2022-09-01T02:29:08;4.00;;;2.20;;
16669;SDS011;8448;52.034;5.158;2022-09-01T02:31:42;3.15;;;2.25;;
16669;SDS011;8448;52.034;5.158;2022-09-01T02:34:10;4.22;;;2.10;;
16669;SDS011;8448;52.034;5.158;2022-09-01T02:36:40;5.97;;;2.40;;
16669;SDS011;8448;52.034;5.158;2022-09-01T02:39:12;3.47;;;2.17;;
16669;SDS011;8448;52.034;5.158;2022-09-01T02:41:40;3.15;;;1.88;;
16669;SDS011;8448;52.034;5.158;2022-09-01T02:44:07;4.22;;;1.98;;
16669;SDS011;8448;52.034;5.158;2022-09-01T02:46:38;4.22;;;2.10;;
16669;SDS011;8448;52.034;5.158;2022-09-01T02:49:07;4.20;;;2.30;;
16669;SDS011;8448;52.034;5.158;2022-09-01T02:51:39;2.75;;;1.80;;
16669;SDS011;8448;52.034;5.158;2022-09-01T02:54:08;4.90;;;1.98;;
16669;SDS011;8448;52.034;5.158;2022-09-01T02:56:37;3.05;;;2.20;;
16669;SDS011;8448;52.034;5.158;2022-09-01T02:59:04;3.63;;;2.30;;
16669;SDS011;8448;52.034;5.158;2022-09-01T03:01:38;2.60;;;2.10;;
16669;SDS011;8448;52.034;5.158;2022-09-01T03:04:06;3.13;;;2.20;;
16669;SDS011;8448;52.034;5.158;2022-09-01T03:06:35;4.20;;;2.20;;
16669;SDS011;8448;52.034;5.158;2022-09-01T03:09:03;2.83;;;2.22;;
16669;SDS011;8448;52.034;5.158;2022-09-01T03:11:33;3.90;;;2.33;;
16669;SDS011;8448;52.034;5.158;2022-09-01T03:14:03;3.67;;;2.60;;
16669;SDS011;8448;52.034;5.158;2022-09-01T03:16:30;5.20;;;2.17;;
16669;SDS011;8448;52.034;5.158;2022-09-01T03:19:00;2.90;;;2.33;;
16669;SDS011;8448;52.034;5.158;2022-09-01T03:21:28;2.50;;;2.20;;
16669;SDS011;8448;52.034;5.158;2022-09-01T03:23:57;4.43;;;2.40;;
16669;SDS011;8448;52.034;5.158;2022-09-01T03:26:26;2.58;;;2.30;;
16669;SDS011;8448;52.034;5.158;2022-09-01T03:28:54;4.63;;;2.40;;
16669;SDS011;8448;52.034;5.158;2022-09-01T03:31:22;3.05;;;2.28;;
16669;SDS011;8448;52.034;5.158;2022-09-01T03:33:51;3.65;;;2.50;;
16669;SDS011;8448;52.034;5.158;2022-09-01T03:36:26;4.88;;;2.60;;
16669;SDS011;8448;52.034;5.158;2022-09-01T03:38:55;2.92;;;2.60;;
16669;SDS011;8448;52.034;5.158;2022-09-01T03:41:25;4.45;;;2.58;;
16669;SDS011;8448;52.034;5.158;2022-09-01T03:43:53;4.43;;;2.60;;
16669;SDS011;8448;52.034;5.158;2022-09-01T03:46:23;2.22;;;2.03;;
16669;SDS011;8448;52.034;5.158;2022-09-01T03:48:52;4.78;;;2.45;;
16669;SDS011;8448;52.034;5.158;2022-09-01T03:51:23;4.45;;;2.47;;
16669;SDS011;8448;52.034;5.158;2022-09-01T03:53:52;3.40;;;2.50;;
16669;SDS011;8448;52.034;5.158;2022-09-01T03:56:21;2.92;;;2.60;;
16669;SDS011;8448;52.034;5.158;2022-09-01T03:58:51;5.95;;;2.60;;
16669;SDS011;8448;52.034;5.158;2022-09-01T04:01:20;2.85;;;2.50;;
16669;SDS011;8448;52.034;5.158;2022-09-01T04:03:48;3.60;;;2.50;;
16669;SDS011;8448;52.034;5.158;2022-09-01T04:06:19;4.60;;;2.58;;
16669;SDS011;8448;52.034;5.158;2022-09-01T04:08:48;2.75;;;2.45;;
16669;SDS011;8448;52.034;5.158;2022-09-01T04:11:19;2.92;;;2.47;;
16669;SDS011;8448;52.034;5.158;2022-09-01T04:13:48;4.15;;;2.80;;
16669;SDS011;8448;52.034;5.158;2022-09-01T04:16:17;5.18;;;2.42;;
16669;SDS011;8448;52.034;5.158;2022-09-01T04:18:59;3.80;;;2.60;;
16669;SDS011;8448;52.034;5.158;2022-09-01T04:21:33;3.45;;;2.65;;
16669;SDS011;8448;52.034;5.158;2022-09-01T04:24:02;2.80;;;2.60;;
16669;SDS011;8448;52.034;5.158;2022-09-01T04:26:31;6.38;;;2.83;;
16669;SDS011;8448;52.034;5.158;2022-09-01T04:28:59;2.95;;;2.50;;
16669;SDS011;8448;52.034;5.158;2022-09-01T04:31:26;3.15;;;2.60;;
16669;SDS011;8448;52.034;5.158;2022-09-01T04:33:55;3.10;;;2.60;;
16669;SDS011;8448;52.034;5.158;2022-09-01T04:36:22;3.50;;;2.75;;
16669;SDS011;8448;52.034;5.158;2022-09-01T04:38:52;3.58;;;2.53;;
16669;SDS011;8448;52.034;5.158;2022-09-01T04:41:22;3.65;;;2.90;;
16669;SDS011;8448;52.034;5.158;2022-09-01T04:43:52;3.35;;;2.80;;
16669;SDS011;8448;52.034;5.158;2022-09-01T04:46:21;6.90;;;2.67;;
16669;SDS011;8448;52.034;5.158;2022-09-01T04:48:52;4.25;;;2.92;;
16669;SDS011;8448;52.034;5.158;2022-09-01T04:51:22;3.35;;;2.88;;
16669;SDS011;8448;52.034;5.158;2022-09-01T04:53:53;5.13;;;2.80;;
16669;SDS011;8448;52.034;5.158;2022-09-01T04:56:21;3.25;;;2.60;;
16669;SDS011;8448;52.034;5.158;2022-09-01T04:59:07;4.43;;;2.63;;
16669;SDS011;8448;52.034;5.158;2022-09-01T05:01:36;6.60;;;2.67;;
16669;SDS011;8448;52.034;5.158;2022-09-01T05:04:10;3.57;;;2.73;;
16669;SDS011;8448;52.034;5.158;2022-09-01T05:06:42;3.80;;;2.60;;
16669;SDS011;8448;52.034;5.158;2022-09-01T05:09:11;3.47;;;2.78;;
16669;SDS011;8448;52.034;5.158;2022-09-01T05:11:55;4.65;;;2.80;;
16669;SDS011;8448;52.034;5.158;2022-09-01T05:14:29;4.03;;;2.42;;
16669;SDS011;8448;52.034;5.158;2022-09-01T05:16:57;4.85;;;2.75;;
16669;SDS011;8448;52.034;5.158;2022-09-01T05:19:26;3.03;;;2.60;;
16669;SDS011;8448;52.034;5.158;2022-09-01T05:21:57;5.20;;;2.78;;
16669;SDS011;8448;52.034;5.158;2022-09-01T05:24:24;3.10;;;2.50;;
16669;SDS011;8448;52.034;5.158;2022-09-01T05:26:56;4.20;;;2.85;;
16669;SDS011;8448;52.034;5.158;2022-09-01T05:29:25;4.95;;;2.70;;
16669;SDS011;8448;52.034;5.158;2022-09-01T05:31:55;3.80;;;2.67;;
16669;SDS011;8448;52.034;5.158;2022-09-01T05:34:24;3.30;;;2.63;;
16669;SDS011;8448;52.034;5.158;2022-09-01T05:36:55;3.60;;;2.58;;
16669;SDS011;8448;52.034;5.158;2022-09-01T05:39:23;5.03;;;2.50;;
16669;SDS011;8448;52.034;5.158;2022-09-01T05:41:51;4.50;;;2.63;;
16669;SDS011;8448;52.034;5.158;2022-09-01T05:44:19;4.35;;;2.63;;
16669;SDS011;8448;52.034;5.158;2022-09-01T05:46:49;5.15;;;2.50;;
16669;SDS011;8448;52.034;5.158;2022-09-01T05:49:19;3.47;;;2.53;;
16669;SDS011;8448;52.034;5.158;2022-09-01T05:51:48;2.80;;;2.45;;
16669;SDS011;8448;52.034;5.158;2022-09-01T05:54:19;6.00;;;2.70;;
16669;SDS011;8448;52.034;5.158;2022-09-01T05:56:49;3.28;;;2.30;;
16669;SDS011;8448;52.034;5.158;2022-09-01T05:59:24;6.68;;;2.70;;
16669;SDS011;8448;52.034;5.158;2022-09-01T06:01:56;2.83;;;2.20;;
16669;SDS011;8448;52.034;5.158;2022-09-01T06:04:26;3.75;;;2.60;;
16669;SDS011;8448;52.034;5.158;2022-09-01T06:07:00;3.50;;;2.40;;
16669;SDS011;8448;52.034;5.158;2022-09-01T06:09:32;2.83;;;2.50;;
16669;SDS011;8448;52.034;5.158;2022-09-01T06:12:02;3.33;;;2.45;;
16669;SDS011;8448;52.034;5.158;2022-09-01T06:14:30;4.13;;;2.35;;
16669;SDS011;8448;52.034;5.158;2022-09-01T06:16:57;2.72;;;2.20;;
16669;SDS011;8448;52.034;5.158;2022-09-01T06:19:26;3.47;;;2.50;;
16669;SDS011;8448;52.034;5.158;2022-09-01T06:21:53;3.22;;;2.40;;
16669;SDS011;8448;52.034;5.158;2022-09-01T06:24:21;2.80;;;2.30;;
16669;SDS011;8448;52.034;5.158;2022-09-01T06:26:49;4.40;;;2.50;;
16669;SDS011;8448;52.034;5.158;2022-09-01T06:29:17;3.85;;;2.20;;
16669;SDS011;8448;52.034;5.158;2022-09-01T06:31:48;4.55;;;2.20;;
16669;SDS011;8448;52.034;5.158;2022-09-01T06:34:17;3.28;;;2.03;;
16669;SDS011;8448;52.034;5.158;2022-09-01T06:36:46;4.82;;;2.13;;
16669;SDS011;8448;52.034;5.158;2022-09-01T06:39:16;3.83;;;2.47;;
16669;SDS011;8448;52.034;5.158;2022-09-01T06:41:47;4.63;;;2.00;;
16669;SDS011;8448;52.034;5.158;2022-09-01T06:44:17;2.35;;;2.10;;
16669;SDS011;8448;52.034;5.158;2022-09-01T06:46:51;3.65;;;2.20;;
16669;SDS011;8448;52.034;5.158;2022-09-01T06:49:19;3.53;;;2.15;;
16669;SDS011;8448;52.034;5.158;2022-09-01T06:51:58;6.10;;;2.30;;
16669;SDS011;8448;52.034;5.158;2022-09-01T06:54:27;5.60;;;2.70;;
16669;SDS011;8448;52.034;5.158;2022-09-01T06:56:58;3.10;;;2.47;;
16669;SDS011;8448;52.034;5.158;2022-09-01T06:59:28;5.75;;;2.00;;
16669;SDS011;8448;52.034;5.158;2022-09-01T07:01:57;3.47;;;2.20;;
16669;SDS011;8448;52.034;5.158;2022-09-01T07:04:31;2.72;;;2.05;;
16669;SDS011;8448;52.034;5.158;2022-09-01T07:07:02;5.80;;;2.30;;
16669;SDS011;8448;52.034;5.158;2022-09-01T07:09:31;8.25;;;3.17;;
16669;SDS011;8448;52.034;5.158;2022-09-01T07:12:14;3.17;;;2.53;;
16669;SDS011;8448;52.034;5.158;2022-09-01T07:14:43;5.07;;;2.13;;
16669;SDS011;8448;52.034;5.158;2022-09-01T07:17:13;4.88;;;2.40;;
16669;SDS011;8448;52.034;5.158;2022-09-01T07:19:41;5.00;;;2.50;;
16669;SDS011;8448;52.034;5.158;2022-09-01T07:22:12;3.88;;;2.42;;
16669;SDS011;8448;52.034;5.158;2022-09-01T07:24:43;3.78;;;2.20;;
16669;SDS011;8448;52.034;5.158;2022-09-01T07:27:34;4.32;;;2.60;;
16669;SDS011;8448;52.034;5.158;2022-09-01T07:30:03;4.03;;;2.53;;
16669;SDS011;8448;52.034;5.158;2022-09-01T07:32:33;3.47;;;2.17;;
16669;SDS011;8448;52.034;5.158;2022-09-01T07:35:01;3.42;;;2.33;;
16669;SDS011;8448;52.034;5.158;2022-09-01T07:37:34;5.65;;;2.17;;
16669;SDS011;8448;52.034;5.158;2022-09-01T07:40:03;5.63;;;2.67;;
16669;SDS011;8448;52.034;5.158;2022-09-01T07:42:47;5.85;;;2.10;;
16669;SDS011;8448;52.034;5.158;2022-09-01T07:45:42;2.67;;;1.80;;
16669;SDS011;8448;52.034;5.158;2022-09-01T07:48:12;2.45;;;1.95;;
16669;SDS011;8448;52.034;5.158;2022-09-01T07:50:45;2.28;;;2.00;;
16669;SDS011;8448;52.034;5.158;2022-09-01T07:53:16;3.30;;;1.85;;
16669;SDS011;8448;52.034;5.158;2022-09-01T07:55:47;3.00;;;1.88;;
16669;SDS011;8448;52.034;5.158;2022-09-01T07:58:15;3.33;;;2.00;;
16669;SDS011;8448;52.034;5.158;2022-09-01T08:00:45;4.50;;;1.65;;
16669;SDS011;8448;52.034;5.158;2022-09-01T08:03:15;4.25;;;1.65;;
16669;SDS011;8448;52.034;5.158;2022-09-01T08:05:44;3.70;;;1.60;;
16669;SDS011;8448;52.034;5.158;2022-09-01T08:08:17;2.50;;;1.73;;
16669;SDS011;8448;52.034;5.158;2022-09-01T08:10:44;1.90;;;1.40;;
16669;SDS011;8448;52.034;5.158;2022-09-01T08:13:13;4.53;;;1.60;;
16669;SDS011;8448;52.034;5.158;2022-09-01T08:15:41;2.10;;;1.50;;
16669;SDS011;8448;52.034;5.158;2022-09-01T08:18:09;2.15;;;1.40;;
16669;SDS011;8448;52.034;5.158;2022-09-01T08:20:38;5.97;;;1.30;;
16669;SDS011;8448;52.034;5.158;2022-09-01T08:23:40;4.72;;;1.75;;
16669;SDS011;8448;52.034;5.158;2022-09-01T08:26:12;1.77;;;1.33;;
16669;SDS011;8448;52.034;5.158;2022-09-01T08:28:41;2.13;;;1.33;;
16669;SDS011;8448;52.034;5.158;2022-09-01T08:31:09;1.55;;;1.30;;
16669;SDS011;8448;52.034;5.158;2022-09-01T08:33:42;3.70;;;1.27;;
16669;SDS011;8448;52.034;5.158;2022-09-01T08:36:12;3.75;;;1.30;;
16669;SDS011;8448;52.034;5.158;2022-09-01T08:38:41;3.67;;;1.30;;
16669;SDS011;8448;52.034;5.158;2022-09-01T08:41:12;4.45;;;1.20;;
16669;SDS011;8448;52.034;5.158;2022-09-01T08:43:46;2.05;;;1.27;;
16669;SDS011;8448;52.034;5.158;2022-09-01T08:46:23;2.17;;;1.10;;
16669;SDS011;8448;52.034;5.158;2022-09-01T08:48:54;2.45;;;1.02;;
16669;SDS011;8448;52.034;5.158;2022-09-01T08:51:24;2.05;;;1.20;;
16669;SDS011;8448;52.034;5.158;2022-09-01T08:54:02;2.75;;;1.20;;
16669;SDS011;8448;52.034;5.158;2022-09-01T08:56:35;1.60;;;1.10;;
16669;SDS011;8448;52.034;5.158;2022-09-01T08:59:04;2.53;;;1.10;;
16669;SDS011;8448;52.034;5.158;2022-09-01T09:02:11;3.05;;;1.10;;
16669;SDS011;8448;52.034;5.158;2022-09-01T09:04:49;3.38;;;1.10;;
16669;SDS011;8448;52.034;5.158;2022-09-01T09:07:26;1.40;;;1.10;;
16669;SDS011;8448;52.034;5.158;2022-09-01T09:10:05;1.70;;;1.00;;
16669;SDS011;8448;52.034;5.158;2022-09-01T09:12:45;4.07;;;1.38;;
16669;SDS011;8448;52.034;5.158;2022-09-01T09:15:19;4.18;;;1.40;;
16669;SDS011;8448;52.034;5.158;2022-09-01T09:17:51;3.28;;;1.40;;
16669;SDS011;8448;52.034;5.158;2022-09-01T09:20:23;1.73;;;1.10;;
16669;SDS011;8448;52.034;5.158;2022-09-01T09:22:51;3.63;;;1.35;;
16669;SDS011;8448;52.034;5.158;2022-09-01T09:25:20;2.20;;;1.30;;
16669;SDS011;8448;52.034;5.158;2022-09-01T09:27:49;4.18;;;1.25;;
16669;SDS011;8448;52.034;5.158;2022-09-01T09:30:18;3.83;;;1.45;;
16669;SDS011;8448;52.034;5.158;2022-09-01T09:32:49;2.33;;;1.15;;
16669;SDS011;8448;52.034;5.158;2022-09-01T09:35:22;7.63;;;1.30;;
16669;SDS011;8448;52.034;5.158;2022-09-01T09:37:52;2.80;;;1.20;;
16669;SDS011;8448;52.034;5.158;2022-09-01T09:40:21;1.83;;;1.15;;
16669;SDS011;8448;52.034;5.158;2022-09-01T09:43:00;2.28;;;1.42;;
16669;SDS011;8448;52.034;5.158;2022-09-01T09:45:30;2.38;;;1.05;;
16669;SDS011;8448;52.034;5.158;2022-09-01T09:47:59;1.67;;;1.00;;
16669;SDS011;8448;52.034;5.158;2022-09-01T09:50:30;3.17;;;1.20;;
16669;SDS011;8448;52.034;5.158;2022-09-01T09:53:10;3.47;;;1.40;;
16669;SDS011;8448;52.034;5.158;2022-09-01T09:55:51;3.97;;;1.10;;
16669;SDS011;8448;52.034;5.158;2022-09-01T09:58:27;3.17;;;1.15;;
16669;SDS011;8448;52.034;5.158;2022-09-01T10:01:10;1.85;;;1.10;;
16669;SDS011;8448;52.034;5.158;2022-09-01T10:03:41;3.35;;;1.20;;
16669;SDS011;8448;52.034;5.158;2022-09-01T10:06:10;1.15;;;1.02;;
16669;SDS011;8448;52.034;5.158;2022-09-01T10:08:40;1.42;;;1.10;;
16669;SDS011;8448;52.034;5.158;2022-09-01T10:11:25;2.08;;;1.20;;
16669;SDS011;8448;52.034;5.158;2022-09-01T10:13:54;2.67;;;1.40;;
16669;SDS011;8448;52.034;5.158;2022-09-01T10:16:24;2.20;;;1.20;;
16669;SDS011;8448;52.034;5.158;2022-09-01T10:18:53;4.30;;;1.08;;
16669;SDS011;8448;52.034;5.158;2022-09-01T10:21:26;2.05;;;1.10;;
16669;SDS011;8448;52.034;5.158;2022-09-01T10:23:59;2.90;;;1.13;;
16669;SDS011;8448;52.034;5.158;2022-09-01T10:26:30;1.50;;;1.08;;
16669;SDS011;8448;52.034;5.158;2022-09-01T10:29:01;3.17;;;0.90;;
16669;SDS011;8448;52.034;5.158;2022-09-01T10:31:32;1.17;;;0.90;;
16669;SDS011;8448;52.034;5.158;2022-09-01T10:34:01;1.75;;;0.88;;
16669;SDS011;8448;52.034;5.158;2022-09-01T10:36:29;2.03;;;1.20;;
16669;SDS011;8448;52.034;5.158;2022-09-01T10:38:57;2.90;;;1.10;;
16669;SDS011;8448;52.034;5.158;2022-09-01T10:44:17;2.25;;;0.90;;
16669;SDS011;8448;52.034;5.158;2022-09-01T10:46:46;1.17;;;1.08;;
16669;SDS011;8448;52.034;5.158;2022-09-01T10:49:19;1.33;;;1.00;;
16669;SDS011;8448;52.034;5.158;2022-09-01T10:52:09;4.32;;;1.00;;
16669;SDS011;8448;52.034;5.158;2022-09-01T10:54:49;3.58;;;1.48;;
16669;SDS011;8448;52.034;5.158;2022-09-01T11:06:04;2.08;;;1.20;;
16669;SDS011;8448;52.034;5.158;2022-09-01T11:08:42;3.97;;;1.10;;
16669;SDS011;8448;52.034;5.158;2022-09-01T11:11:15;2.65;;;1.20;;
16669;SDS011;8448;52.034;5.158;2022-09-01T11:13:51;2.95;;;1.20;;
16669;SDS011;8448;52.034;5.158;2022-09-01T11:16:30;3.05;;;1.02;;
16669;SDS011;8448;52.034;5.158;2022-09-01T11:19:16;1.85;;;0.90;;
16669;SDS011;8448;52.034;5.158;2022-09-01T11:22:02;3.03;;;1.10;;
16669;SDS011;8448;52.034;5.158;2022-09-01T11:24:49;1.38;;;1.00;;
16669;SDS011;8448;52.034;5.158;2022-09-01T11:30:29;2.38;;;0.88;;
16669;SDS011;8448;52.034;5.158;2022-09-01T11:33:06;1.15;;;0.85;;
16669;SDS011;8448;52.034;5.158;2022-09-01T11:35:42;1.67;;;0.90;;
16669;SDS011;8448;52.034;5.158;2022-09-01T11:38:11;1.52;;;0.98;;
16669;SDS011;8448;52.034;5.158;2022-09-01T11:40:40;0.80;;;0.80;;
16669;SDS011;8448;52.034;5.158;2022-09-01T11:43:08;1.45;;;0.90;;
16669;SDS011;8448;52.034;5.158;2022-09-01T11:45:42;0.93;;;0.82;;
16669;SDS011;8448;52.034;5.158;2022-09-01T11:48:16;3.65;;;1.05;;
16669;SDS011;8448;52.034;5.158;2022-09-01T11:50:43;1.65;;;0.80;;
16669;SDS011;8448;52.034;5.158;2022-09-01T11:53:11;1.95;;;1.02;;
16669;SDS011;8448;52.034;5.158;2022-09-01T11:55:40;1.15;;;0.75;;
16669;SDS011;8448;52.034;5.158;2022-09-01T11:58:09;2.38;;;1.00;;
16669;SDS011;8448;52.034;5.158;2022-09-01T12:00:38;0.95;;;0.80;;
16669;SDS011;8448;52.034;5.158;2022-09-01T12:03:17;2.78;;;0.95;;
16669;SDS011;8448;52.034;5.158;2022-09-01T12:05:46;6.65;;;0.90;;
16669;SDS011;8448;52.034;5.158;2022-09-01T12:08:18;1.45;;;0.90;;
16669;SDS011;8448;52.034;5.158;2022-09-01T12:10:46;0.98;;;0.75;;
16669;SDS011;8448;52.034;5.158;2022-09-01T12:13:16;1.23;;;0.75;;
16669;SDS011;8448;52.034;5.158;2022-09-01T12:15:52;1.95;;;0.90;;
16669;SDS011;8448;52.034;5.158;2022-09-01T12:18:21;1.67;;;0.82;;
16669;SDS011;8448;52.034;5.158;2022-09-01T12:20:52;1.63;;;0.90;;
16669;SDS011;8448;52.034;5.158;2022-09-01T12:23:23;1.65;;;0.80;;
16669;SDS011;8448;52.034;5.158;2022-09-01T12:25:52;2.40;;;0.82;;
16669;SDS011;8448;52.034;5.158;2022-09-01T12:28:21;1.67;;;0.77;;
16669;SDS011;8448;52.034;5.158;2022-09-01T12:30:50;1.17;;;0.70;;
16669;SDS011;8448;52.034;5.158;2022-09-01T12:33:19;1.02;;;0.80;;
16669;SDS011;8448;52.034;5.158;2022-09-01T12:35:47;1.42;;;0.98;;
16669;SDS011;8448;52.034;5.158;2022-09-01T12:38:25;1.50;;;0.93;;
16669;SDS011;8448;52.034;5.158;2022-09-01T12:40:56;1.20;;;0.63;;
16669;SDS011;8448;52.034;5.158;2022-09-01T12:43:28;2.53;;;0.70;;
16669;SDS011;8448;52.034;5.158;2022-09-01T12:45:58;3.05;;;0.88;;
16669;SDS011;8448;52.034;5.158;2022-09-01T12:48:26;2.17;;;0.80;;
16669;SDS011;8448;52.034;5.158;2022-09-01T12:50:55;1.60;;;0.90;;
16669;SDS011;8448;52.034;5.158;2022-09-01T12:53:25;1.50;;;0.88;;
16669;SDS011;8448;52.034;5.158;2022-09-01T12:58:50;0.80;;;0.77;;
16669;SDS011;8448;52.034;5.158;2022-09-01T13:01:27;4.43;;;0.80;;
16669;SDS011;8448;52.034;5.158;2022-09-01T13:04:06;3.58;;;0.82;;
16669;SDS011;8448;52.034;5.158;2022-09-01T13:06:46;2.05;;;0.77;;
16669;SDS011;8448;52.034;5.158;2022-09-01T13:09:13;2.25;;;0.80;;
16669;SDS011;8448;52.034;5.158;2022-09-01T13:11:40;1.30;;;0.80;;
16669;SDS011;8448;52.034;5.158;2022-09-01T13:14:12;1.35;;;0.80;;
16669;SDS011;8448;52.034;5.158;2022-09-01T13:16:40;1.48;;;1.00;;
16669;SDS011;8448;52.034;5.158;2022-09-01T13:19:08;1.60;;;0.85;;
16669;SDS011;8448;52.034;5.158;2022-09-01T13:21:35;3.20;;;0.73;;
16669;SDS011;8448;52.034;5.158;2022-09-01T13:24:03;1.90;;;0.82;;
16669;SDS011;8448;52.034;5.158;2022-09-01T13:26:31;2.67;;;1.13;;
16669;SDS011;8448;52.034;5.158;2022-09-01T13:28:59;2.45;;;0.82;;
16669;SDS011;8448;52.034;5.158;2022-09-01T13:31:27;1.40;;;0.90;;
16669;SDS011;8448;52.034;5.158;2022-09-01T13:33:57;5.70;;;1.02;;
16669;SDS011;8448;52.034;5.158;2022-09-01T13:36:24;1.13;;;1.02;;
16669;SDS011;8448;52.034;5.158;2022-09-01T13:38:52;1.38;;;0.95;;
16669;SDS011;8448;52.034;5.158;2022-09-01T13:41:19;1.38;;;0.88;;
16669;SDS011;8448;52.034;5.158;2022-09-01T13:43:46;0.93;;;0.80;;
16669;SDS011;8448;52.034;5.158;2022-09-01T13:46:13;1.10;;;0.90;;
16669;SDS011;8448;52.034;5.158;2022-09-01T13:48:41;2.75;;;0.90;;
16669;SDS011;8448;52.034;5.158;2022-09-01T13:51:10;2.38;;;0.90;;
16669;SDS011;8448;52.034;5.158;2022-09-01T13:53:37;1.65;;;1.00;;
16669;SDS011;8448;52.034;5.158;2022-09-01T13:56:04;4.10;;;1.00;;
16669;SDS011;8448;52.034;5.158;2022-09-01T13:58:32;2.55;;;0.90;;
16669;SDS011;8448;52.034;5.158;2022-09-01T14:00:59;0.90;;;0.70;;
16669;SDS011;8448;52.034;5.158;2022-09-01T14:03:26;2.22;;;0.90;;
16669;SDS011;8448;52.034;5.158;2022-09-01T14:05:56;2.85;;;1.10;;
16669;SDS011;8448;52.034;5.158;2022-09-01T14:08:24;1.20;;;0.93;;
16669;SDS011;8448;52.034;5.158;2022-09-01T14:10:52;1.55;;;0.90;;
16669;SDS011;8448;52.034;5.158;2022-09-01T14:13:19;1.73;;;1.00;;
16669;SDS011;8448;52.034;5.158;2022-09-01T14:15:48;1.27;;;1.00;;
16669;SDS011;8448;52.034;5.158;2022-09-01T14:18:17;1.13;;;1.00;;
16669;SDS011;8448;52.034;5.158;2022-09-01T14:20:46;2.78;;;1.00;;
16669;SDS011;8448;52.034;5.158;2022-09-01T14:23:15;0.80;;;0.80;;
16669;SDS011;8448;52.034;5.158;2022-09-01T14:25:45;1.80;;;0.80;;
16669;SDS011;8448;52.034;5.158;2022-09-01T14:28:14;3.70;;;1.00;;
16669;SDS011;8448;52.034;5.158;2022-09-01T14:30:42;3.15;;;0.90;;
16669;SDS011;8448;52.034;5.158;2022-09-01T14:33:10;2.35;;;1.00;;
16669;SDS011;8448;52.034;5.158;2022-09-01T14:35:39;1.75;;;1.30;;
16669;SDS011;8448;52.034;5.158;2022-09-01T14:38:08;1.95;;;0.90;;
16669;SDS011;8448;52.034;5.158;2022-09-01T14:40:36;2.28;;;1.10;;
16669;SDS011;8448;52.034;5.158;2022-09-01T14:43:06;1.05;;;0.90;;
16669;SDS011;8448;52.034;5.158;2022-09-01T14:45:38;1.45;;;0.90;;
16669;SDS011;8448;52.034;5.158;2022-09-01T14:48:08;3.38;;;1.20;;
16669;SDS011;8448;52.034;5.158;2022-09-01T14:50:38;4.03;;;1.08;;
16669;SDS011;8448;52.034;5.158;2022-09-01T14:53:06;3.92;;;1.02;;
16669;SDS011;8448;52.034;5.158;2022-09-01T14:55:34;3.40;;;0.93;;
16669;SDS011;8448;52.034;5.158;2022-09-01T14:58:01;1.10;;;1.00;;
16669;SDS011;8448;52.034;5.158;2022-09-01T15:00:31;2.95;;;1.10;;
16669;SDS011;8448;52.034;5.158;2022-09-01T15:03:00;2.65;;;1.15;;
16669;SDS011;8448;52.034;5.158;2022-09-01T15:05:27;4.93;;;1.30;;
16669;SDS011;8448;52.034;5.158;2022-09-01T15:07:55;0.98;;;0.98;;
16669;SDS011;8448;52.034;5.158;2022-09-01T15:10:23;1.75;;;0.90;;
16669;SDS011;8448;52.034;5.158;2022-09-01T15:12:51;1.67;;;1.25;;
16669;SDS011;8448;52.034;5.158;2022-09-01T15:15:20;1.60;;;1.02;;
16669;SDS011;8448;52.034;5.158;2022-09-01T15:17:49;1.83;;;1.02;;
16669;SDS011;8448;52.034;5.158;2022-09-01T15:20:16;3.10;;;1.00;;
16669;SDS011;8448;52.034;5.158;2022-09-01T15:23:01;3.17;;;1.00;;
16669;SDS011;8448;52.034;5.158;2022-09-01T15:25:29;2.53;;;0.90;;
16669;SDS011;8448;52.034;5.158;2022-09-01T15:27:57;2.83;;;0.90;;
16669;SDS011;8448;52.034;5.158;2022-09-01T15:30:24;2.13;;;0.98;;
16669;SDS011;8448;52.034;5.158;2022-09-01T15:32:53;2.15;;;1.00;;
16669;SDS011;8448;52.034;5.158;2022-09-01T15:35:21;1.25;;;1.02;;
16669;SDS011;8448;52.034;5.158;2022-09-01T15:37:49;2.45;;;0.90;;
16669;SDS011;8448;52.034;5.158;2022-09-01T15:40:17;1.25;;;0.90;;